Time;durP1;ratioP1;P1;durP2;ratioP2;P2;SDS_P1;SDS_P2;PMS_P1;PMS_P2;Temp;Humidity;BMP_temperature;BMP_pressure;BME280_temperature;BME280_humidity;BME280_pressure;Samples;Min_cycle;Max_cycle;Signal;HPM_P1;HPM_P2
2023/12/31 00:00:33;;;;;;;;;8.00;8.00;;;;;10.60;74.35;99889.94;5018768;28;46262;-77
2023/12/31 00:02:59;;;;;;;;;6.67;6.67;;;;;10.37;75.11;99804.72;5017447;28;45411;-76
2023/12/31 00:05:29;;;;;;;;;4.67;4.67;;;;;10.72;74.31;99864.69;5014439;28;45433;-78
2023/12/31 00:07:54;;;;;;;;;4.00;4.00;;;;;10.70;74.82;99857.91;5015606;28;45313;-76
2023/12/31 00:10:20;;;;;;;;;4.67;4.67;;;;;10.73;74.59;99844.28;5015050;28;45381;-78
2023/12/31 00:12:47;;;;;;;;;5.00;5.00;;;;;10.72;74.47;99831.97;5015570;28;45357;-80
2023/12/31 00:15:12;;;;;;;;;4.00;4.00;;;;;10.65;74.79;99818.53;5015701;28;45443;-79
2023/12/31 00:17:38;;;;;;;;;7.00;5.00;;;;;10.50;74.60;99785.63;5015255;28;45583;-76
2023/12/31 00:20:03;;;;;;;;;3.33;3.33;;;;;10.76;74.91;99810.19;5014784;28;46129;-79
2023/12/31 00:22:29;;;;;;;;;5.67;5.67;;;;;10.58;74.46;99781.13;5015156;28;45458;-80
2023/12/31 00:24:55;;;;;;;;;5.00;5.00;;;;;10.75;74.86;99802.38;4997330;28;45398;-77
2023/12/31 00:27:21;;;;;;;;;9.33;8.00;;;;;10.78;74.96;99789.59;5018465;28;45408;-80
2023/12/31 00:29:46;;;;;;;;;7.00;7.00;;;;;10.29;74.95;99715.25;5017095;28;45350;-76
2023/12/31 00:32:12;;;;;;;;;4.00;4.00;;;;;10.52;75.04;99744.59;5016625;28;45361;-76
2023/12/31 00:34:37;;;;;;;;;4.00;4.00;;;;;10.75;74.81;99779.28;5015139;28;45352;-77
2023/12/31 00:37:06;;;;;;;;;6.33;6.00;;;;;9.93;75.25;99627.09;5014160;28;45526;-78
2023/12/31 00:39:31;;;;;;;;;7.67;6.67;;;;;10.58;75.27;99735.94;5014709;28;45572;-79
2023/12/31 00:41:56;;;;;;;;;5.00;5.00;;;;;10.61;75.14;99756.91;5014634;28;45400;-77
2023/12/31 00:44:22;;;;;;;;;3.00;3.00;;;;;10.66;75.60;99769.69;5020264;28;45467;-77
2023/12/31 00:46:47;;;;;;;;;6.00;5.00;;;;;10.63;75.79;99744.28;5021231;28;45478;-78
2023/12/31 00:49:13;;;;;;;;;7.00;7.00;;;;;10.63;75.55;99749.59;5016179;28;45488;-77
2023/12/31 00:51:38;;;;;;;;;5.00;5.00;;;;;10.66;75.48;99735.13;5017535;28;45727;-79
2023/12/31 00:54:03;;;;;;;;;5.33;5.33;;;;;10.74;75.36;99739.59;5017987;28;45534;-77
2023/12/31 00:56:29;;;;;;;;;5.00;5.00;;;;;10.74;75.45;99727.13;5015424;28;45460;-79
2023/12/31 00:58:54;;;;;;;;;7.67;6.00;;;;;10.72;75.77;99728.28;5015630;28;46177;-78
2023/12/31 01:01:20;;;;;;;;;8.33;8.33;;;;;10.52;75.66;99691.47;5016041;28;45412;-77
2023/12/31 01:03:45;;;;;;;;;8.00;6.67;;;;;10.73;76.14;99724.63;5016484;28;45555;-79
2023/12/31 01:06:10;;;;;;;;;7.00;6.00;;;;;10.75;75.77;99710.16;5015186;28;45408;-75
2023/12/31 01:08:36;;;;;;;;;6.33;6.33;;;;;10.43;75.24;99660.59;5013943;28;46256;-78
2023/12/31 01:11:02;;;;;;;;;6.33;6.00;;;;;10.78;75.79;99704.50;5014397;28;45592;-76
2023/12/31 01:13:28;;;;;;;;;7.00;7.00;;;;;10.79;75.22;99689.38;5013065;28;45526;-78
2023/12/31 01:15:53;;;;;;;;;8.67;6.00;;;;;10.77;75.13;99681.59;5014563;28;45253;-78
2023/12/31 01:18:19;;;;;;;;;6.33;6.33;;;;;10.79;75.40;99670.78;5014117;28;45299;-76
2023/12/31 01:20:44;;;;;;;;;6.67;5.00;;;;;10.61;75.42;99655.03;5014040;28;45293;-77
2023/12/31 01:23:10;;;;;;;;;8.67;7.33;;;;;10.62;75.46;99649.59;5013925;28;45513;-76
2023/12/31 01:25:35;;;;;;;;;6.00;6.00;;;;;10.75;75.10;99667.63;5014671;28;45643;-76
2023/12/31 01:28:01;;;;;;;;;6.33;4.67;;;;;10.71;75.14;99657.53;5014292;28;46616;-79
2023/12/31 01:30:26;;;;;;;;;7.00;6.00;;;;;10.34;74.95;99584.56;5012720;28;45389;-77
2023/12/31 01:32:51;;;;;;;;;7.00;5.00;;;;;10.18;75.31;99560.66;5016897;28;45579;-77
2023/12/31 01:35:18;;;;;;;;;3.67;3.67;;;;;10.62;74.90;99633.63;5017736;28;45458;-76
2023/12/31 01:37:44;;;;;;;;;6.00;6.00;;;;;10.68;74.87;99634.78;5017515;28;47024;-77
2023/12/31 01:40:10;;;;;;;;;5.67;5.67;;;;;10.70;74.66;99626.63;5019853;28;45358;-77
2023/12/31 01:42:35;;;;;;;;;5.67;5.33;;;;;10.57;74.67;99592.59;5019456;28;45407;-78
2023/12/31 01:45:03;;;;;;;;;5.00;5.00;;;;;10.59;74.95;99588.78;5018328;28;45388;-77
2023/12/31 01:47:28;;;;;;;;;8.33;6.67;;;;;10.63;74.96;99605.22;5016569;28;46115;-77
2023/12/31 01:49:54;;;;;;;;;6.33;6.33;;;;;10.63;74.70;99603.41;5017459;28;45417;-79
2023/12/31 01:52:19;;;;;;;;;7.00;7.00;;;;;10.49;74.37;99571.38;5017472;28;45728;-77
2023/12/31 01:54:45;;;;;;;;;9.00;9.00;;;;;10.72;74.67;99592.72;5019947;28;45364;-75
2023/12/31 01:57:11;;;;;;;;;7.33;6.00;;;;;10.70;74.72;99610.69;5019074;28;45962;-76
2023/12/31 01:59:37;;;;;;;;;6.67;5.00;;;;;10.52;74.17;99561.25;5017933;28;45402;-77
2023/12/31 02:02:03;;;;;;;;;5.00;5.00;;;;;10.66;74.45;99579.13;5017432;28;45436;-79
2023/12/31 02:04:33;;;;;;;;;7.33;6.33;;;;;10.53;74.19;99541.63;5017454;28;45582;-76
2023/12/31 02:07:00;;;;;;;;;5.00;5.00;;;;;10.09;74.12;99476.72;5016906;28;45340;-77
2023/12/31 02:09:26;;;;;;;;;8.67;7.00;;;;;10.68;74.36;99543.56;5016965;28;45341;-78
2023/12/31 02:11:51;;;;;;;;;5.00;4.00;;;;;10.70;74.39;99552.19;5017609;28;45580;-76
2023/12/31 02:14:16;;;;;;;;;6.33;6.33;;;;;10.72;74.32;99545.69;5017126;28;45602;-76
2023/12/31 02:16:42;;;;;;;;;6.67;5.33;;;;;10.58;73.84;99509.22;5016618;28;46081;-77
2023/12/31 02:19:07;;;;;;;;;5.00;5.00;;;;;10.59;73.88;99519.66;5017410;28;45439;-75
2023/12/31 02:21:33;;;;;;;;;7.00;5.00;;;;;10.58;73.68;99504.72;5017700;28;45821;-76
2023/12/31 02:23:58;;;;;;;;;5.00;5.00;;;;;10.65;73.60;99526.97;5017150;28;45477;-76
2023/12/31 02:26:24;;;;;;;;;5.67;5.67;;;;;10.61;73.35;99507.06;5017435;28;46524;-76
2023/12/31 02:28:50;;;;;;;;;6.33;6.33;;;;;10.71;73.59;99480.25;5016382;28;45328;-76
2023/12/31 02:31:15;;;;;;;;;5.33;5.33;;;;;10.71;73.39;99480.25;5016554;28;45814;-75
2023/12/31 02:33:41;;;;;;;;;5.00;5.00;;;;;10.75;73.53;99497.50;5016705;28;45340;-76
2023/12/31 02:36:07;;;;;;;;;6.00;6.00;;;;;10.75;73.63;99504.66;5016470;28;45946;-76
2023/12/31 02:38:32;;;;;;;;;6.33;6.00;;;;;10.58;73.10;99472.84;5016238;28;45301;-76
2023/12/31 02:40:58;;;;;;;;;6.00;5.00;;;;;10.62;73.10;99468.03;5016222;28;45704;-76
2023/12/31 02:43:23;;;;;;;;;3.67;3.67;;;;;10.63;73.52;99459.03;5016687;28;45562;-75
2023/12/31 02:45:48;;;;;;;;;4.33;4.00;;;;;10.69;73.51;99468.97;5022811;28;46164;-76
2023/12/31 02:48:14;;;;;;;;;4.00;4.00;;;;;10.75;73.11;99486.03;5017163;28;45344;-75
2023/12/31 02:50:39;;;;;;;;;6.00;4.00;;;;;10.76;72.88;99474.41;5016819;28;45321;-75
2023/12/31 02:53:05;;;;;;;;;8.00;4.00;;;;;10.69;72.99;99465.47;5016815;28;45731;-76
2023/12/31 02:55:30;;;;;;;;;4.33;4.33;;;;;10.74;72.89;99463.94;5015427;28;46146;-75
2023/12/31 02:57:55;;;;;;;;;4.00;4.00;;;;;10.82;72.78;99489.66;5016058;28;45285;-77
2023/12/31 03:00:20;;;;;;;;;3.50;3.50;;;;;10.88;72.90;99486.28;5015455;28;45389;-75
2023/12/31 03:02:46;;;;;;;;;6.00;6.00;;;;;10.86;72.08;99467.03;5016296;28;45262;-76
2023/12/31 03:05:12;;;;;;;;;5.00;5.00;;;;;10.84;72.46;99458.41;4998698;28;48309;-79
2023/12/31 03:07:37;;;;;;;;;4.00;3.00;;;;;10.82;72.44;99460.41;5016421;28;45506;-74
2023/12/31 03:10:03;;;;;;;;;5.00;3.67;;;;;10.98;72.60;99466.41;5016000;28;45457;-77
2023/12/31 03:12:28;;;;;;;;;5.00;4.33;;;;;11.02;71.79;99464.25;5016035;28;45478;-76
2023/12/31 03:14:55;;;;;;;;;3.00;3.00;;;;;10.84;71.47;99423.84;5015373;28;45804;-76
2023/12/31 03:17:21;;;;;;;;;7.67;4.67;;;;;11.08;71.39;99460.06;5015799;28;45329;-77
2023/12/31 03:19:48;;;;;;;;;5.33;4.33;;;;;11.05;71.80;99445.28;5015946;28;45475;-76
2023/12/31 03:22:14;;;;;;;;;4.00;4.00;;;;;11.13;70.95;99444.38;5016318;28;45602;-78
2023/12/31 03:24:42;;;;;;;;;4.00;4.00;;;;;11.18;71.89;99434.84;5015484;28;45466;-77
2023/12/31 03:27:09;;;;;;;;;5.00;5.00;;;;;11.19;72.32;99417.88;5015310;28;45490;-76
2023/12/31 03:29:35;;;;;;;;;4.00;4.00;;;;;10.89;72.40;99360.31;5014776;28;45461;-75
2023/12/31 03:32:00;;;;;;;;;5.00;4.00;;;;;11.20;72.71;99406.22;5016299;28;45331;-77
2023/12/31 03:34:26;;;;;;;;;3.00;3.00;;;;;10.98;72.89;99362.72;5015651;28;45400;-77
2023/12/31 03:36:51;;;;;;;;;4.00;4.00;;;;;11.24;72.22;99391.59;5015878;28;45379;-77
2023/12/31 03:39:17;;;;;;;;;5.33;4.67;;;;;11.26;71.81;99386.06;5015933;28;45307;-77
2023/12/31 03:41:43;;;;;;;;;4.00;3.00;;;;;11.19;72.42;99372.66;5021388;28;45289;-78
2023/12/31 03:44:08;;;;;;;;;3.00;3.00;;;;;11.23;71.73;99373.97;5021635;28;45431;-77
2023/12/31 03:46:33;;;;;;;;;3.67;3.67;;;;;11.26;71.92;99362.13;5016197;28;45306;-78
2023/12/31 03:48:59;;;;;;;;;3.33;3.33;;;;;11.33;71.55;99372.88;5015446;28;45541;-77
2023/12/31 03:51:24;;;;;;;;;6.67;4.00;;;;;11.32;71.70;99353.41;5015741;28;45467;-77
2023/12/31 03:53:50;;;;;;;;;5.33;5.33;;;;;11.39;71.30;99364.13;5014804;28;46900;-77
2023/12/31 03:56:15;;;;;;;;;2.67;2.67;;;;;11.40;71.79;99373.78;5015450;28;45495;-77
2023/12/31 03:58:41;;;;;;;;;3.33;3.33;;;;;11.44;71.79;99354.63;5015631;28;45542;-76
2023/12/31 04:01:06;;;;;;;;;3.33;3.33;;;;;11.45;72.66;99366.09;5015175;28;45281;-78
2023/12/31 04:03:31;;;;;;;;;4.67;3.33;;;;;11.30;73.24;99341.31;5014730;28;45624;-76
2023/12/31 04:05:57;;;;;;;;;4.67;3.67;;;;;11.44;73.79;99362.59;4996853;28;45502;-78
2023/12/31 04:08:23;;;;;;;;;3.67;3.67;;;;;11.45;73.78;99384.72;5015246;28;45442;-76
2023/12/31 04:10:49;;;;;;;;;4.67;3.00;;;;;11.44;73.66;99380.41;5015880;28;45588;-75
2023/12/31 04:13:16;;;;;;;;;4.00;4.00;;;;;11.02;74.15;99311.84;5013775;28;46861;-77
2023/12/31 04:15:41;;;;;;;;;3.00;3.00;;;;;11.34;75.03;99388.63;5015744;28;45494;-76
2023/12/31 04:18:07;;;;;;;;;4.00;2.00;;;;;11.20;75.18;99379.63;5017126;28;45226;-76
2023/12/31 04:20:32;;;;;;;;;4.00;4.00;;;;;11.21;75.90;99368.00;5017875;28;45352;-77
2023/12/31 04:22:57;;;;;;;;;4.00;3.00;;;;;10.84;75.17;99304.22;5015904;28;45970;-77
2023/12/31 04:25:23;;;;;;;;;2.00;2.00;;;;;11.15;75.12;99339.44;5015911;28;45424;-76
2023/12/31 04:27:48;;;;;;;;;1.33;1.33;;;;;11.02;74.82;99323.31;5015252;28;45269;-74
2023/12/31 04:30:13;;;;;;;;;1.00;1.00;;;;;11.13;74.71;99328.16;5014062;28;45474;-78
2023/12/31 04:32:39;;;;;;;;;1.00;1.00;;;;;10.76;73.71;99248.44;5014706;28;45461;-76
2023/12/31 04:35:05;;;;;;;;;0.67;0.67;;;;;10.44;73.47;99239.78;5014408;28;45478;-76
2023/12/31 04:37:31;;;;;;;;;2.33;1.33;;;;;10.96;73.85;99329.34;5014578;28;45436;-76
2023/12/31 04:39:57;;;;;;;;;2.00;1.00;;;;;10.91;73.49;99329.06;5015009;28;45522;-76
2023/12/31 04:42:22;;;;;;;;;0.00;0.00;;;;;10.92;73.05;99331.53;5016079;28;46028;-74
2023/12/31 04:44:47;;;;;;;;;0.00;0.00;;;;;10.88;73.69;99326.75;5015187;28;45459;-76
2023/12/31 04:47:13;;;;;;;;;0.00;0.00;;;;;10.74;73.47;99304.44;5015732;28;45784;-77
2023/12/31 04:49:39;;;;;;;;;0.00;0.00;;;;;10.80;73.74;99329.47;5014166;28;45439;-77
2023/12/31 04:52:05;;;;;;;;;1.00;1.00;;;;;10.59;74.27;99299.09;5014611;28;46147;-78
2023/12/31 04:54:30;;;;;;;;;0.00;0.00;;;;;10.82;74.34;99327.50;5014632;28;45410;-76
2023/12/31 04:56:55;;;;;;;;;1.75;1.00;;;;;10.78;73.66;99342.13;5014538;28;45489;-76
2023/12/31 04:59:21;;;;;;;;;2.00;1.00;;;;;10.59;73.55;99311.56;4996350;28;45638;-75
2023/12/31 05:01:49;;;;;;;;;0.00;0.00;;;;;10.62;73.28;99328.00;5012941;28;47132;-77
2023/12/31 05:04:15;;;;;;;;;0.00;0.00;;;;;10.68;73.14;99336.25;5014436;28;45368;-76
2023/12/31 05:06:40;;;;;;;;;0.00;0.00;;;;;10.30;72.88;99291.03;5016680;28;45599;-78
2023/12/31 05:09:08;;;;;;;;;0.00;0.00;;;;;10.53;72.35;99329.03;5018460;28;45392;-76
2023/12/31 05:11:34;;;;;;;;;0.00;0.00;;;;;10.54;73.04;99320.06;5017618;28;45722;-76
2023/12/31 05:13:59;;;;;;;;;0.00;0.00;;;;;10.49;72.74;99335.72;5017632;28;45411;-77
2023/12/31 05:16:26;;;;;;;;;0.00;0.00;;;;;10.52;72.35;99322.06;5017827;28;45256;-76
2023/12/31 05:18:53;;;;;;;;;0.00;0.00;;;;;9.72;72.92;99202.13;5018635;28;45728;-77
2023/12/31 05:21:19;;;;;;;;;0.67;0.67;;;;;10.56;73.38;99317.22;5016654;28;46106;-76
2023/12/31 05:23:44;;;;;;;;;0.33;0.00;;;;;10.37;71.83;99302.59;5017783;28;45372;-76
2023/12/31 05:26:09;;;;;;;;;0.00;0.00;;;;;10.51;71.67;99333.72;4999976;28;45440;-77
2023/12/31 05:28:35;;;;;;;;;0.67;0.00;;;;;10.56;71.53;99331.34;4999283;28;45388;-76
2023/12/31 05:31:00;;;;;;;;;0.00;0.00;;;;;10.47;71.06;99327.09;5017264;28;46297;-77
2023/12/31 05:33:26;;;;;;;;;0.00;0.00;;;;;10.50;71.49;99329.41;5015919;28;45471;-76
2023/12/31 05:35:51;;;;;;;;;0.67;0.00;;;;;10.52;71.06;99343.34;5017315;28;45237;-77
2023/12/31 05:38:17;;;;;;;;;0.67;0.67;;;;;10.26;70.81;99287.91;5017555;28;45237;-76
2023/12/31 05:40:43;;;;;;;;;1.00;0.00;;;;;10.47;70.05;99321.78;5017025;28;46325;-77
2023/12/31 05:43:08;;;;;;;;;0.00;0.00;;;;;10.36;70.24;99295.63;5017172;28;45481;-75
2023/12/31 05:45:34;;;;;;;;;0.75;0.75;;;;;10.45;70.09;99299.91;5017117;28;45451;-76
2023/12/31 05:47:59;;;;;;;;;0.75;0.50;;;;;10.37;69.80;99276.03;4999154;28;45353;-76
2023/12/31 05:50:25;;;;;;;;;0.00;0.00;;;;;10.40;69.49;99280.16;5016337;28;45576;-75
2023/12/31 05:52:50;;;;;;;;;0.00;0.00;;;;;10.34;69.92;99271.91;5017136;28;45395;-76
2023/12/31 05:55:16;;;;;;;;;0.00;0.00;;;;;10.27;69.79;99267.50;5017099;28;45515;-76
2023/12/31 05:57:43;;;;;;;;;0.00;0.00;;;;;10.28;69.46;99267.31;5017403;28;45297;-75
2023/12/31 06:00:09;;;;;;;;;0.00;0.00;;;;;10.21;69.66;99249.59;5016437;28;45258;-76
2023/12/31 06:02:35;;;;;;;;;0.25;0.00;;;;;10.14;69.26;99267.22;5016773;28;45401;-76
2023/12/31 06:05:01;;;;;;;;;0.00;0.00;;;;;10.11;69.90;99273.72;5016757;28;45471;-76
2023/12/31 06:07:27;;;;;;;;;1.00;0.00;;;;;10.07;69.82;99283.88;5016886;28;45448;-77
2023/12/31 06:09:52;;;;;;;;;0.00;0.00;;;;;9.88;70.22;99265.75;5016621;28;45372;-76
2023/12/31 06:12:17;;;;;;;;;1.25;0.00;;;;;9.76;70.00;99224.66;5016895;28;45472;-75
2023/12/31 06:14:43;;;;;;;;;0.00;0.00;;;;;10.03;69.73;99290.53;5016999;28;45982;-77
2023/12/31 06:17:08;;;;;;;;;0.00;0.00;;;;;10.03;69.82;99305.66;5016359;28;45428;-77
2023/12/31 06:19:34;;;;;;;;;0.00;0.00;;;;;9.94;69.73;99302.19;5015408;28;46154;-75
2023/12/31 06:21:59;;;;;;;;;2.00;0.00;;;;;9.94;69.73;99302.19;4998485;28;45408;-75
2023/12/31 06:24:25;;;;;;;;;0.00;0.00;;;;;9.96;69.73;99302.84;5016702;28;45385;-76
2023/12/31 06:26:52;;;;;;;;;1.00;0.00;;;;;10.00;68.90;99309.44;5015923;28;45254;-75
2023/12/31 06:29:17;;;;;;;;;0.00;0.00;;;;;9.95;67.86;99314.47;5015854;28;46123;-77
2023/12/31 06:31:42;;;;;;;;;0.00;0.00;;;;;10.02;67.78;99331.38;5015981;28;45385;-77
2023/12/31 06:34:08;;;;;;;;;0.00;0.00;;;;;9.98;67.88;99338.00;5015769;28;45380;-75
2023/12/31 06:36:33;;;;;;;;;0.00;0.00;;;;;9.99;67.20;99321.06;5015203;28;45597;-76
2023/12/31 06:38:59;;;;;;;;;0.00;0.00;;;;;10.06;67.50;99358.38;5020413;28;45983;-76
2023/12/31 06:41:24;;;;;;;;;0.00;0.00;;;;;10.09;67.48;99373.16;5024409;28;45383;-76
2023/12/31 06:43:50;;;;;;;;;0.67;0.00;;;;;10.11;67.26;99368.47;5024275;28;45328;-77
2023/12/31 06:46:15;;;;;;;;;1.00;0.00;;;;;9.93;66.94;99345.66;5021882;28;45486;-76
2023/12/31 06:48:40;;;;;;;;;0.00;0.00;;;;;10.15;66.81;99372.44;5017287;28;46145;-76
2023/12/31 06:51:06;;;;;;;;;0.00;0.00;;;;;9.89;67.07;99309.84;5017162;28;45308;-76
2023/12/31 06:53:33;;;;;;;;;0.00;0.00;;;;;10.16;66.57;99376.75;5015350;28;45403;-76
2023/12/31 06:56:04;;;;;;;;;0.00;0.00;;;;;10.14;66.64;99362.81;5017236;28;45432;-77
2023/12/31 06:58:30;;;;;;;;;0.25;0.00;;;;;10.05;66.75;99333.66;5000043;28;46674;-78
2023/12/31 07:00:55;;;;;;;;;0.00;0.00;;;;;9.99;66.76;99360.91;5016966;28;45436;-76
2023/12/31 07:03:20;;;;;;;;;1.00;0.00;;;;;10.17;66.55;99392.50;5019414;28;45360;-77
2023/12/31 07:05:47;;;;;;;;;0.33;0.00;;;;;10.14;66.72;99394.69;5015292;28;45539;-76
2023/12/31 07:08:14;;;;;;;;;0.00;0.00;;;;;10.15;67.04;99404.31;5017407;28;46123;-76
2023/12/31 07:10:39;;;;;;;;;0.00;0.00;;;;;10.15;66.80;99414.94;4998590;28;45535;-76
2023/12/31 07:13:05;;;;;;;;;0.00;0.00;;;;;10.14;67.20;99429.22;5016255;28;45787;-77
2023/12/31 07:15:30;;;;;;;;;2.00;0.00;;;;;10.07;66.84;99426.44;5022420;28;45510;-79
2023/12/31 07:17:56;;;;;;;;;1.67;0.00;;;;;9.87;67.07;99414.56;5024067;28;45876;-76
2023/12/31 07:20:22;;;;;;;;;1.00;0.00;;;;;9.82;67.41;99409.78;5028286;28;45364;-80
2023/12/31 07:22:47;;;;;;;;;1.00;0.00;;;;;9.92;67.49;99450.22;5028213;28;44984;-77
2023/12/31 07:25:13;;;;;;;;;0.00;0.00;;;;;9.64;67.80;99417.97;5026004;28;45464;-77
2023/12/31 07:27:38;;;;;;;;;0.00;0.00;;;;;9.83;67.66;99448.59;5017146;28;45419;-75
2023/12/31 07:30:04;;;;;;;;;1.33;0.00;;;;;9.82;67.91;99457.56;5015842;28;45375;-75
2023/12/31 07:32:29;;;;;;;;;0.00;0.00;;;;;9.76;68.15;99463.53;4999355;28;45476;-77
2023/12/31 07:34:55;;;;;;;;;0.00;0.00;;;;;9.72;68.27;99454.25;5016421;28;45490;-76
2023/12/31 07:37:20;;;;;;;;;1.33;0.00;;;;;9.76;68.23;99474.97;5015873;28;45443;-76
2023/12/31 07:39:46;;;;;;;;;0.00;0.00;;;;;9.78;67.98;99477.44;5016187;28;45406;-77
2023/12/31 07:42:11;;;;;;;;;1.00;0.00;;;;;9.76;68.20;99479.44;5017058;28;45442;-78
2023/12/31 07:44:36;;;;;;;;;0.00;0.00;;;;;9.70;68.37;99486.28;5016144;28;45444;-77
2023/12/31 07:47:03;;;;;;;;;1.67;0.00;;;;;9.61;68.37;99481.13;5016594;28;45884;-77
2023/12/31 07:49:30;;;;;;;;;2.75;0.00;;;;;9.44;68.30;99475.88;5015498;28;45482;-76
2023/12/31 07:51:55;;;;;;;;;0.00;0.00;;;;;9.58;68.49;99521.28;5016635;28;45627;-75
2023/12/31 07:54:21;;;;;;;;;1.00;0.00;;;;;9.57;68.82;99543.50;4997593;28;45431;-77
2023/12/31 07:56:47;;;;;;;;;0.67;0.00;;;;;9.50;68.76;99537.22;5016022;28;46089;-77
2023/12/31 07:59:12;;;;;;;;;0.00;0.00;;;;;9.57;68.75;99551.47;5015326;28;45372;-77
2023/12/31 08:01:38;;;;;;;;;0.00;0.00;;;;;9.61;69.06;99576.66;5016109;28;45361;-77
2023/12/31 08:04:03;;;;;;;;;0.00;0.00;;;;;9.42;68.73;99551.31;5015856;28;45478;-77
2023/12/31 08:06:28;;;;;;;;;3.00;1.00;;;;;9.59;68.78;99582.13;5015234;28;45589;-77
2023/12/31 08:08:54;;;;;;;;;0.00;0.00;;;;;9.59;69.06;99573.34;5015405;28;45344;-77
2023/12/31 08:11:21;;;;;;;;;0.00;0.00;;;;;9.57;69.36;99593.91;5014275;28;45514;-76
2023/12/31 08:13:48;;;;;;;;;0.50;0.50;;;;;9.04;68.97;99508.53;5016251;28;45412;-77
2023/12/31 08:16:14;;;;;;;;;0.00;0.00;;;;;9.62;69.21;99589.78;5016542;28;45461;-80
2023/12/31 08:18:40;;;;;;;;;0.00;0.00;;;;;9.65;68.84;99593.94;5015925;28;45364;-77
2023/12/31 08:21:05;;;;;;;;;0.00;0.00;;;;;9.65;69.04;99592.09;5014913;28;45520;-77
2023/12/31 08:23:30;;;;;;;;;0.00;0.00;;;;;9.72;68.82;99605.53;5018358;28;45461;-77
2023/12/31 08:25:59;;;;;;;;;1.00;0.00;;;;;9.59;68.67;99581.31;5018945;28;45945;-77
2023/12/31 08:28:24;;;;;;;;;0.00;0.00;;;;;9.67;68.79;99608.69;5022092;28;45380;-75
2023/12/31 08:30:51;;;;;;;;;1.00;1.00;;;;;9.67;69.11;99600.72;5019878;28;45355;-77
2023/12/31 08:33:18;;;;;;;;;0.00;0.00;;;;;8.97;69.08;99504.03;5017330;28;45399;-76
2023/12/31 08:35:43;;;;;;;;;0.25;0.00;;;;;9.72;69.03;99622.28;5015496;28;45393;-78
2023/12/31 08:38:09;;;;;;;;;1.67;0.00;;;;;9.53;68.79;99589.94;5016021;28;45285;-78
2023/12/31 08:40:35;;;;;;;;;0.00;0.00;;;;;9.87;68.47;99635.72;5015098;28;45521;-78
2023/12/31 08:43:01;;;;;;;;;1.67;0.00;;;;;9.71;68.15;99583.47;5016587;28;45530;-78
2023/12/31 08:45:26;;;;;;;;;1.00;1.00;;;;;9.90;67.84;99619.47;4997761;28;46638;-78
2023/12/31 08:47:52;;;;;;;;;0.67;0.67;;;;;9.65;67.94;99567.41;5017802;28;45372;-77
2023/12/31 08:50:18;;;;;;;;;4.00;1.00;;;;;10.33;67.40;99652.78;5015372;28;45344;-77
2023/12/31 08:52:45;;;;;;;;;0.67;0.67;;;;;10.16;65.55;99571.44;5018105;28;45413;-75
2023/12/31 08:55:11;;;;;;;;;0.25;0.00;;;;;10.78;64.73;99581.38;5014661;28;46118;-77
2023/12/31 08:57:40;;;;;;;;;1.75;1.00;;;;;11.81;62.77;99646.63;5015799;28;45367;-75
2023/12/31 09:00:15;;;;;;;;;0.50;0.50;;;;;12.65;59.32;99654.50;5014779;28;45384;-77
2023/12/31 09:02:41;;;;;;;;;1.50;0.00;;;;;13.13;57.28;99628.22;5016250;28;45348;-79
2023/12/31 09:05:07;;;;;;;;;4.00;0.00;;;;;13.81;56.26;99642.91;5014113;28;45342;-76
2023/12/31 09:07:34;;;;;;;;;1.00;0.50;;;;;14.10;54.08;99640.09;5016714;28;45431;-77
2023/12/31 09:10:02;;;;;;;;;1.25;0.50;;;;;14.57;53.54;99659.97;5019343;28;45279;-78
2023/12/31 09:12:27;;;;;;;;;0.00;0.00;;;;;14.57;52.91;99651.97;5000533;28;45481;-78
2023/12/31 09:14:53;;;;;;;;;2.00;1.00;;;;;14.08;53.92;99674.22;5016911;28;45375;-77
2023/12/31 09:17:18;;;;;;;;;0.75;0.75;;;;;13.62;55.63;99695.97;4998801;28;45410;-78
2023/12/31 09:19:44;;;;;;;;;1.00;0.00;;;;;12.86;55.67;99627.06;5015231;28;45535;-77
2023/12/31 09:22:09;;;;;;;;;1.00;1.00;;;;;12.91;57.17;99688.69;5015356;28;45385;-77
2023/12/31 09:24:35;;;;;;;;;1.67;0.67;;;;;12.76;57.59;99702.03;5016364;28;46059;-78
2023/12/31 09:27:00;;;;;;;;;1.33;0.00;;;;;12.62;58.62;99705.53;5014533;28;45641;-78
2023/12/31 09:29:26;;;;;;;;;5.00;1.00;;;;;12.49;58.75;99706.97;5014400;28;45345;-79
2023/12/31 09:31:51;;;;;;;;;3.00;0.50;;;;;12.28;58.74;99698.84;5014762;28;45486;-76
2023/12/31 09:34:16;;;;;;;;;3.33;0.00;;;;;11.96;59.64;99685.78;5014645;28;50794;-76
2023/12/31 09:36:42;;;;;;;;;2.67;1.33;;;;;11.78;59.67;99713.53;5018828;28;45413;-79
2023/12/31 09:39:08;;;;;;;;;2.00;1.00;;;;;11.63;60.80;99712.63;5017547;28;45340;-78
2023/12/31 09:41:36;;;;;;;;;2.25;1.00;;;;;11.45;61.13;99696.09;5014718;28;45305;-77
2023/12/31 09:44:03;;;;;;;;;2.25;1.00;;;;;11.68;61.00;99712.09;5014335;28;46239;-78
2023/12/31 09:46:32;;;;;;;;;1.00;1.00;;;;;11.69;61.38;99727.88;4996475;28;45558;-78
2023/12/31 09:48:59;;;;;;;;;2.33;1.00;;;;;11.67;61.27;99729.06;5012834;28;45344;-77
2023/12/31 09:51:25;;;;;;;;;4.00;1.00;;;;;11.57;61.46;99718.63;5015257;28;45814;-77
2023/12/31 09:53:53;;;;;;;;;1.00;1.00;;;;;11.73;61.17;99729.19;5016559;28;45456;-77
2023/12/31 09:56:21;;;;;;;;;2.00;0.50;;;;;11.70;60.90;99715.41;5017637;28;45471;-77
2023/12/31 09:58:48;;;;;;;;;2.00;2.00;;;;;11.65;60.48;99723.94;4998839;28;45328;-76
2023/12/31 10:01:14;;;;;;;;;1.00;1.00;;;;;11.55;61.01;99720.66;5017484;28;45615;-77
2023/12/31 10:03:40;;;;;;;;;3.00;1.00;;;;;11.65;60.33;99717.78;5017459;28;45573;-77
2023/12/31 10:06:06;;;;;;;;;2.00;1.00;;;;;11.60;60.17;99723.59;5017286;28;45432;-79
2023/12/31 10:08:32;;;;;;;;;1.00;1.00;;;;;11.66;60.12;99744.22;5017314;28;45288;-78
2023/12/31 10:10:59;;;;;;;;;4.50;1.00;;;;;11.67;59.60;99748.53;5017766;28;45573;-77
2023/12/31 10:13:26;;;;;;;;;0.33;0.33;;;;;11.57;60.07;99715.97;5015629;28;45626;-79
2023/12/31 10:15:51;;;;;;;;;1.50;1.00;;;;;11.70;59.80;99715.41;5015903;28;45896;-78
2023/12/31 10:18:17;;;;;;;;;3.00;1.00;;;;;10.83;59.88;99601.16;5015620;28;45457;-80
2023/12/31 10:20:42;;;;;;;;;2.00;1.25;;;;;11.64;59.71;99727.59;5017540;28;45397;-77
2023/12/31 10:23:08;;;;;;;;;2.75;1.00;;;;;11.73;60.25;99739.84;5016865;28;46194;-79
2023/12/31 10:25:33;;;;;;;;;3.67;2.00;;;;;11.56;60.08;99709.00;4998914;28;45298;-77
2023/12/31 10:27:59;;;;;;;;;2.33;1.00;;;;;11.62;59.42;99705.66;5017139;28;45398;-79
2023/12/31 10:30:24;;;;;;;;;4.33;3.33;;;;;11.80;60.00;99719.50;5015976;28;45341;-79
2023/12/31 10:32:50;;;;;;;;;2.33;0.67;;;;;11.73;59.28;99726.53;4998795;28;45999;-76
2023/12/31 10:35:20;;;;;;;;;4.00;1.00;;;;;11.53;59.65;99710.19;5016099;28;45312;-78
2023/12/31 10:37:45;;;;;;;;;4.00;3.00;;;;;11.34;59.82;99684.00;5016517;28;45326;-78
2023/12/31 10:40:19;;;;;;;;;4.33;3.00;;;;;11.69;60.02;99725.22;5015484;28;45603;-79
2023/12/31 10:42:58;;;;;;;;;4.00;2.00;;;;;11.71;59.96;99739.19;5017173;28;45477;-78
2023/12/31 10:45:23;;;;;;;;;6.00;2.33;;;;;11.71;59.67;99723.22;5016888;28;45459;-79
2023/12/31 10:47:51;;;;;;;;;1.67;1.00;;;;;11.71;60.18;99728.53;5016217;28;45361;-78
2023/12/31 10:50:22;;;;;;;;;6.33;2.33;;;;;11.34;59.95;99661.88;5017727;28;45476;-77
2023/12/31 10:52:50;;;;;;;;;2.67;2.67;;;;;11.68;60.25;99726.25;5015325;28;47292;-76
2023/12/31 10:55:17;;;;;;;;;3.00;1.00;;;;;11.56;59.94;99688.53;5016585;28;45521;-79
2023/12/31 10:57:43;;;;;;;;;4.67;3.00;;;;;11.72;59.97;99700.06;5017384;28;45234;-80
2023/12/31 11:00:10;;;;;;;;;5.00;2.33;;;;;11.67;59.21;99692.63;5017273;28;45523;-79
2023/12/31 11:02:36;;;;;;;;;2.00;0.00;;;;;11.53;58.84;99672.09;4997676;28;47555;-77
2023/12/31 11:05:03;;;;;;;;;1.00;1.00;;;;;11.69;58.53;99692.44;5014477;28;45538;-77
2023/12/31 11:07:29;;;;;;;;;6.25;4.00;;;;;11.73;58.81;99677.78;5015949;28;45210;-78
2023/12/31 11:09:56;;;;;;;;;5.00;2.00;;;;;11.76;58.43;99678.25;5016354;28;45449;-78
2023/12/31 11:12:22;;;;;;;;;4.00;3.00;;;;;11.25;57.96;99592.78;5016286;28;46317;-77
2023/12/31 11:15:01;;;;;;;;;1.75;1.75;;;;;11.77;57.70;99674.56;5016082;28;45315;-77
2023/12/31 11:18:05;;;;;;;;;3.33;0.33;;;;;11.81;56.97;99681.25;5016890;28;45573;-78
2023/12/31 11:20:47;;;;;;;;;8.67;2.33;;;;;11.82;57.01;99701.56;4997980;28;45517;-78
2023/12/31 11:23:29;;;;;;;;;1.67;1.67;;;;;11.83;56.97;99695.22;5017514;28;45502;-78
2023/12/31 11:25:55;;;;;;;;;6.75;4.25;;;;;11.86;55.96;99702.03;5018153;28;45207;-79
2023/12/31 11:28:24;;;;;;;;;4.33;2.00;;;;;11.85;56.25;99693.19;5016808;28;45393;-77